Terminal Aerodrome Forecast
Issued by NWS

Current Version | Previous Version | Text Only | Print | Product List | Glossary On
Versions: 1 2 3 4 5 6 7 8 9 10 11 12 13
000
FTUS42 TJSJ 151132
TAFJPS
TAF
TJPS 151132Z 1512/1612 VRB05KT P6SM FEW030
     FM151500 14012KT P6SM VCSH FEW030 SCT060
     FM152200 08004KT P6SM FEW035
      AMD NOT SKED TIL 160300=

USA.gov is the U.S. government's official web portal to all federal, state and local government web resources and services.